Terminal Aerodrome Forecast
Issued by NWS

Home | Current Version | Previous Version | Text Only | Print | Product List | Glossary On
Versions: 1 2 3 4 5 6 7 8 9 10 11 12 13
289
FTUS44 KLIX 202341
TAFGPT
TAF
KGPT 202341Z 2100/2124 11010KT P6SM FEW040
     FM210800 11004KT P6SM SCT200
     FM211600 11008KT P6SM SCT110
     FM212200 13010KT P6SM BKN040=

USA.gov is the U.S. government's official web portal to all federal, state and local government web resources and services.